This is the latest recevied weather packets stored in our database for station/object AK6MW. If no packets are shown the sender has not sent any weather packets the latest 10 day(s).
| Time | Temp. | Humidity | Pressure | Rain* | Wind** | Luminosity | Snow |
|---|---|---|---|---|---|---|---|
| 1777895328 | 5.56° C | 82% | 1014.2 hPa | - | - | - | - |
| 1777891130 | 5.56° C | 81% | 1014.4 hPa | - | - | - | - |
| 1777883329 | 6.67° C | 83% | 1014.6 hPa | - | - | - | - |
| 1777880928 | 6.67° C | 81% | 1015 hPa | - | - | - | - |
| 1777876730 | 7.22° C | 79% | 1014.7 hPa | - | - | - | - |
| 1777867149 | 8.33° C | 74% | 1013.4 hPa | - | - | - | - |
| 1777864748 | 9.44° C | 71% | 1013 hPa | - | - | - | - |
| 1777862349 | 11.67° C | 67% | 1012.3 hPa | - | - | - | - |
| 1777861729 | 12.22° C | 66% | 1012.5 hPa | - | - | - | - |
| 1777855728 | 14.44° C | 57% | 1012.1 hPa | - | - | - | - |
| 1777847928 | 16.67° C | 55% | 1012.6 hPa | - | - | - | - |
| 1777843727 | 16.11° C | 59% | 1012.9 hPa | - | - | - | - |
| 1777841328 | 16.11° C | 61% | 1012.9 hPa | - | - | - | - |
| 1777838327 | 16.11° C | 62% | 1013.1 hPa | - | - | - | - |
| 1777831126 | 16.11° C | 60% | 1013.7 hPa | - | - | - | - |
| 1777829947 | 15.56° C | 61% | 1013.7 hPa | - | - | - | - |
| 1777823327 | 20.56° C | 24% | 1012.7 hPa | - | - | - | - |
| 1777822727 | 20° C | 24% | 1012.7 hPa | - | - | - | - |
| 1777822127 | 19.44° C | 26% | 1012.7 hPa | - | - | - | - |
| 1777820927 | 18.89° C | 27% | 1012.9 hPa | - | - | - | - |
| 1777817326 | 12.78° C | 37% | 1012.6 hPa | - | - | - | - |
| 1777814928 | 11.11° C | 44% | 1012.4 hPa | - | - | - | - |
| 1777810727 | 10° C | 46% | 1012.5 hPa | - | - | - | - |
| 1777808926 | 7.78° C | 57% | 1012.7 hPa | - | - | - | - |
| 1777808327 | 8.33° C | 55% | 1013 hPa | - | - | - | - |
* Rain since midnight (hover to see other rain measurements)
** Current wind speed in m/s (hover to see current wind gust speed)